sensor_id;sensor_type;location;lat;lon;timestamp;temperature;humidity
66726;HTU21D;53638;51.062;5.804;2022-10-26T00:02:18;12.96;118.99
66726;HTU21D;53638;51.062;5.804;2022-10-26T00:04:47;12.96;118.99
66726;HTU21D;53638;51.062;5.804;2022-10-26T00:07:13;12.93;118.99
66726;HTU21D;53638;51.062;5.804;2022-10-26T00:09:50;12.90;118.99
66726;HTU21D;53638;51.062;5.804;2022-10-26T00:12:41;12.87;118.99
66726;HTU21D;53638;51.062;5.804;2022-10-26T00:15:19;12.82;118.99
66726;HTU21D;53638;51.062;5.804;2022-10-26T00:17:47;12.82;118.99
66726;HTU21D;53638;51.062;5.804;2022-10-26T00:20:25;12.80;118.99
66726;HTU21D;53638;51.062;5.804;2022-10-26T00:26:08;12.76;118.99
66726;HTU21D;53638;51.062;5.804;2022-10-26T00:28:34;12.77;118.99
66726;HTU21D;53638;51.062;5.804;2022-10-26T00:31:05;12.76;118.99
66726;HTU21D;53638;51.062;5.804;2022-10-26T00:33:31;12.76;118.99
66726;HTU21D;53638;51.062;5.804;2022-10-26T00:36:11;12.75;118.99
66726;HTU21D;53638;51.062;5.804;2022-10-26T00:38:39;12.74;118.99
66726;HTU21D;53638;51.062;5.804;2022-10-26T00:41:31;12.72;118.99
66726;HTU21D;53638;51.062;5.804;2022-10-26T00:43:58;12.70;118.99
66726;HTU21D;53638;51.062;5.804;2022-10-26T00:46:59;12.69;118.99
66726;HTU21D;53638;51.062;5.804;2022-10-26T00:49:50;12.70;118.99
66726;HTU21D;53638;51.062;5.804;2022-10-26T00:52:35;12.69;118.99
66726;HTU21D;53638;51.062;5.804;2022-10-26T00:55:22;12.69;118.99
66726;HTU21D;53638;51.062;5.804;2022-10-26T00:57:51;12.69;118.99
66726;HTU21D;53638;51.062;5.804;2022-10-26T01:00:18;12.72;118.99
66726;HTU21D;53638;51.062;5.804;2022-10-26T01:03:21;12.76;118.99
66726;HTU21D;53638;51.062;5.804;2022-10-26T01:06:14;12.78;118.99
66726;HTU21D;53638;51.062;5.804;2022-10-26T01:08:49;12.82;118.99
66726;HTU21D;53638;51.062;5.804;2022-10-26T01:11:36;12.81;118.99
66726;HTU21D;53638;51.062;5.804;2022-10-26T01:14:07;12.81;118.99
66726;HTU21D;53638;51.062;5.804;2022-10-26T01:23:10;12.91;118.99
66726;HTU21D;53638;51.062;5.804;2022-10-26T01:26:23;12.92;118.99
66726;HTU21D;53638;51.062;5.804;2022-10-26T01:28:59;12.95;118.99
66726;HTU21D;53638;51.062;5.804;2022-10-26T01:31:42;12.96;118.99
66726;HTU21D;53638;51.062;5.804;2022-10-26T01:34:18;12.96;118.99
66726;HTU21D;53638;51.062;5.804;2022-10-26T01:36:55;12.95;118.99
66726;HTU21D;53638;51.062;5.804;2022-10-26T01:39:33;12.95;118.99
66726;HTU21D;53638;51.062;5.804;2022-10-26T01:42:04;12.96;118.99
66726;HTU21D;53638;51.062;5.804;2022-10-26T01:44:38;12.97;118.99
66726;HTU21D;53638;51.062;5.804;2022-10-26T01:47:10;13.01;118.99
66726;HTU21D;53638;51.062;5.804;2022-10-26T01:49:42;13.04;118.99
66726;HTU21D;53638;51.062;5.804;2022-10-26T01:52:09;13.07;118.99
66726;HTU21D;53638;51.062;5.804;2022-10-26T01:54:36;13.07;118.99
66726;HTU21D;53638;51.062;5.804;2022-10-26T01:57:07;13.10;118.99
66726;HTU21D;53638;51.062;5.804;2022-10-26T01:59:44;13.12;118.99
66726;HTU21D;53638;51.062;5.804;2022-10-26T02:03:25;13.17;118.99
66726;HTU21D;53638;51.062;5.804;2022-10-26T02:06:08;13.19;118.99
66726;HTU21D;53638;51.062;5.804;2022-10-26T02:08:49;13.22;118.99
66726;HTU21D;53638;51.062;5.804;2022-10-26T02:13:56;13.26;118.99
66726;HTU21D;53638;51.062;5.804;2022-10-26T02:16:39;13.29;118.99
66726;HTU21D;53638;51.062;5.804;2022-10-26T02:22:12;13.34;118.99
66726;HTU21D;53638;51.062;5.804;2022-10-26T02:24:52;13.38;118.99
66726;HTU21D;53638;51.062;5.804;2022-10-26T02:27:25;13.39;118.99
66726;HTU21D;53638;51.062;5.804;2022-10-26T02:29:54;13.41;118.99
66726;HTU21D;53638;51.062;5.804;2022-10-26T02:32:25;13.45;118.99
66726;HTU21D;53638;51.062;5.804;2022-10-26T02:34:55;13.46;118.99
66726;HTU21D;53638;51.062;5.804;2022-10-26T02:37:25;13.47;118.99
66726;HTU21D;53638;51.062;5.804;2022-10-26T02:39:54;13.50;118.99
66726;HTU21D;53638;51.062;5.804;2022-10-26T02:42:24;13.52;118.99
66726;HTU21D;53638;51.062;5.804;2022-10-26T02:44:56;13.54;118.99
66726;HTU21D;53638;51.062;5.804;2022-10-26T02:47:24;13.56;118.99
66726;HTU21D;53638;51.062;5.804;2022-10-26T02:49:52;13.58;118.99
66726;HTU21D;53638;51.062;5.804;2022-10-26T02:52:30;13.59;118.99
66726;HTU21D;53638;51.062;5.804;2022-10-26T02:55:08;13.58;118.99
66726;HTU21D;53638;51.062;5.804;2022-10-26T02:57:38;13.56;118.99
66726;HTU21D;53638;51.062;5.804;2022-10-26T03:00:09;13.56;118.99
66726;HTU21D;53638;51.062;5.804;2022-10-26T03:02:40;13.54;118.99
66726;HTU21D;53638;51.062;5.804;2022-10-26T03:05:13;13.55;118.99
66726;HTU21D;53638;51.062;5.804;2022-10-26T03:07:40;13.56;118.99
66726;HTU21D;53638;51.062;5.804;2022-10-26T03:10:06;13.58;118.99
66726;HTU21D;53638;51.062;5.804;2022-10-26T03:12:32;13.58;118.99
66726;HTU21D;53638;51.062;5.804;2022-10-26T03:14:58;13.59;118.99
66726;HTU21D;53638;51.062;5.804;2022-10-26T03:17:24;13.60;118.99
66726;HTU21D;53638;51.062;5.804;2022-10-26T03:19:50;13.62;118.99
66726;HTU21D;53638;51.062;5.804;2022-10-26T03:22:18;13.61;118.99
66726;HTU21D;53638;51.062;5.804;2022-10-26T03:24:45;13.60;118.99
66726;HTU21D;53638;51.062;5.804;2022-10-26T03:27:11;13.59;118.99
66726;HTU21D;53638;51.062;5.804;2022-10-26T03:29:36;13.59;118.99
66726;HTU21D;53638;51.062;5.804;2022-10-26T03:32:02;13.61;118.99
66726;HTU21D;53638;51.062;5.804;2022-10-26T03:34:28;13.61;118.99
66726;HTU21D;53638;51.062;5.804;2022-10-26T03:36:54;13.62;118.99
66726;HTU21D;53638;51.062;5.804;2022-10-26T03:39:20;13.64;118.99
66726;HTU21D;53638;51.062;5.804;2022-10-26T03:41:46;13.65;118.99
66726;HTU21D;53638;51.062;5.804;2022-10-26T03:44:12;13.66;118.99
66726;HTU21D;53638;51.062;5.804;2022-10-26T03:46:38;13.68;118.99
66726;HTU21D;53638;51.062;5.804;2022-10-26T03:49:04;13.69;118.99
66726;HTU21D;53638;51.062;5.804;2022-10-26T03:52:05;13.70;118.99
66726;HTU21D;53638;51.062;5.804;2022-10-26T03:54:31;13.70;118.99
66726;HTU21D;53638;51.062;5.804;2022-10-26T03:57:22;13.73;118.99
66726;HTU21D;53638;51.062;5.804;2022-10-26T03:59:48;13.73;118.99
66726;HTU21D;53638;51.062;5.804;2022-10-26T04:02:14;13.75;118.99
66726;HTU21D;53638;51.062;5.804;2022-10-26T04:04:40;13.74;118.99
66726;HTU21D;53638;51.062;5.804;2022-10-26T04:07:06;13.74;118.99
66726;HTU21D;53638;51.062;5.804;2022-10-26T04:09:31;13.73;118.99
66726;HTU21D;53638;51.062;5.804;2022-10-26T04:11:57;13.74;118.99
66726;HTU21D;53638;51.062;5.804;2022-10-26T04:14:23;13.73;118.99
66726;HTU21D;53638;51.062;5.804;2022-10-26T04:17:13;13.74;118.99
66726;HTU21D;53638;51.062;5.804;2022-10-26T04:19:48;13.76;118.99
66726;HTU21D;53638;51.062;5.804;2022-10-26T04:22:14;13.79;118.99
66726;HTU21D;53638;51.062;5.804;2022-10-26T04:24:40;13.79;118.99
66726;HTU21D;53638;51.062;5.804;2022-10-26T04:27:09;13.81;118.99
66726;HTU21D;53638;51.062;5.804;2022-10-26T04:29:53;13.82;118.99
66726;HTU21D;53638;51.062;5.804;2022-10-26T04:32:19;13.84;118.99
66726;HTU21D;53638;51.062;5.804;2022-10-26T04:34:48;13.84;118.99
66726;HTU21D;53638;51.062;5.804;2022-10-26T04:37:13;13.86;118.99
66726;HTU21D;53638;51.062;5.804;2022-10-26T04:39:39;13.88;118.99
66726;HTU21D;53638;51.062;5.804;2022-10-26T04:42:05;13.89;118.99
66726;HTU21D;53638;51.062;5.804;2022-10-26T04:44:32;13.90;118.99
66726;HTU21D;53638;51.062;5.804;2022-10-26T04:47:00;13.91;118.99
66726;HTU21D;53638;51.062;5.804;2022-10-26T04:49:26;13.92;118.99
66726;HTU21D;53638;51.062;5.804;2022-10-26T04:51:52;13.93;118.99
66726;HTU21D;53638;51.062;5.804;2022-10-26T04:54:18;13.94;118.99
66726;HTU21D;53638;51.062;5.804;2022-10-26T04:56:45;13.96;118.99
66726;HTU21D;53638;51.062;5.804;2022-10-26T04:59:11;13.98;118.99
66726;HTU21D;53638;51.062;5.804;2022-10-26T05:01:36;14.00;118.99
66726;HTU21D;53638;51.062;5.804;2022-10-26T05:04:02;13.99;118.99
66726;HTU21D;53638;51.062;5.804;2022-10-26T05:06:28;14.01;118.99
66726;HTU21D;53638;51.062;5.804;2022-10-26T05:08:54;14.03;118.99
66726;HTU21D;53638;51.062;5.804;2022-10-26T05:11:20;14.03;118.99
66726;HTU21D;53638;51.062;5.804;2022-10-26T05:13:46;14.03;118.99
66726;HTU21D;53638;51.062;5.804;2022-10-26T05:16:13;14.01;118.99
66726;HTU21D;53638;51.062;5.804;2022-10-26T05:18:40;13.99;118.99
66726;HTU21D;53638;51.062;5.804;2022-10-26T05:21:06;13.98;118.99
66726;HTU21D;53638;51.062;5.804;2022-10-26T05:23:32;13.97;118.99
66726;HTU21D;53638;51.062;5.804;2022-10-26T05:25:58;13.97;118.99
66726;HTU21D;53638;51.062;5.804;2022-10-26T05:28:24;13.97;118.99
66726;HTU21D;53638;51.062;5.804;2022-10-26T05:30:50;13.98;118.99
66726;HTU21D;53638;51.062;5.804;2022-10-26T05:33:15;14.01;118.99
66726;HTU21D;53638;51.062;5.804;2022-10-26T05:35:47;14.04;118.99
66726;HTU21D;53638;51.062;5.804;2022-10-26T05:38:15;14.08;118.99
66726;HTU21D;53638;51.062;5.804;2022-10-26T05:44:23;14.15;118.99
66726;HTU21D;53638;51.062;5.804;2022-10-26T05:46:49;14.19;118.99
66726;HTU21D;53638;51.062;5.804;2022-10-26T05:49:14;14.22;118.99
66726;HTU21D;53638;51.062;5.804;2022-10-26T05:51:40;14.22;118.99
66726;HTU21D;53638;51.062;5.804;2022-10-26T05:54:06;14.21;118.99
66726;HTU21D;53638;51.062;5.804;2022-10-26T05:56:36;14.21;118.99
66726;HTU21D;53638;51.062;5.804;2022-10-26T05:59:04;14.18;118.99
66726;HTU21D;53638;51.062;5.804;2022-10-26T06:01:43;14.13;118.99
66726;HTU21D;53638;51.062;5.804;2022-10-26T06:06:51;14.05;118.99
66726;HTU21D;53638;51.062;5.804;2022-10-26T06:09:19;14.03;118.99
66726;HTU21D;53638;51.062;5.804;2022-10-26T06:11:45;14.08;118.99
66726;HTU21D;53638;51.062;5.804;2022-10-26T06:14:11;14.12;118.99
66726;HTU21D;53638;51.062;5.804;2022-10-26T06:19:46;14.26;118.99
66726;HTU21D;53638;51.062;5.804;2022-10-26T06:25:22;14.50;118.99
66726;HTU21D;53638;51.062;5.804;2022-10-26T06:30:29;14.77;118.99
66726;HTU21D;53638;51.062;5.804;2022-10-26T06:32:55;14.88;118.99
66726;HTU21D;53638;51.062;5.804;2022-10-26T14:32:25;22.77;118.64
66726;HTU21D;53638;51.062;5.804;2022-10-26T14:34:52;22.76;118.53
66726;HTU21D;53638;51.062;5.804;2022-10-26T14:38:09;22.71;118.66
66726;HTU21D;53638;51.062;5.804;2022-10-26T14:40:33;22.69;118.63
66726;HTU21D;53638;51.062;5.804;2022-10-26T14:43:04;22.62;118.41
66726;HTU21D;53638;51.062;5.804;2022-10-26T14:46:00;22.56;118.20
66726;HTU21D;53638;51.062;5.804;2022-10-26T14:52:23;22.55;118.69
66726;HTU21D;53638;51.062;5.804;2022-10-26T15:05:32;22.36;118.99
66726;HTU21D;53638;51.062;5.804;2022-10-26T15:08:01;22.28;118.99
66726;HTU21D;53638;51.062;5.804;2022-10-26T15:12:02;22.13;118.99
66726;HTU21D;53638;51.062;5.804;2022-10-26T15:24:43;22.21;118.99
66726;HTU21D;53638;51.062;5.804;2022-10-26T15:28:45;22.22;118.99
66726;HTU21D;53638;51.062;5.804;2022-10-26T16:09:55;21.17;118.99
66726;HTU21D;53638;51.062;5.804;2022-10-26T16:12:21;21.19;118.99
66726;HTU21D;53638;51.062;5.804;2022-10-26T16:14:47;21.13;118.99
66726;HTU21D;53638;51.062;5.804;2022-10-26T16:17:25;21.09;118.99
66726;HTU21D;53638;51.062;5.804;2022-10-26T16:19:51;21.01;118.99
66726;HTU21D;53638;51.062;5.804;2022-10-26T16:22:32;20.93;118.99
66726;HTU21D;53638;51.062;5.804;2022-10-26T16:24:58;20.85;118.99
66726;HTU21D;53638;51.062;5.804;2022-10-26T16:27:30;20.76;118.99
66726;HTU21D;53638;51.062;5.804;2022-10-26T16:29:58;20.65;118.99
66726;HTU21D;53638;51.062;5.804;2022-10-26T16:32:27;20.56;118.99
66726;HTU21D;53638;51.062;5.804;2022-10-26T16:34:56;20.48;118.99
